sensor_id;sensor_type;location;lat;lon;timestamp;temperature;humidity
4910;DHT22;2470;49.868;8.660;2023-04-24T00:02:07;13.60;99.90
4910;DHT22;2470;49.868;8.660;2023-04-24T00:04:34;13.60;99.90
4910;DHT22;2470;49.868;8.660;2023-04-24T00:07:00;13.60;99.90
4910;DHT22;2470;49.868;8.660;2023-04-24T00:09:26;13.60;99.90
4910;DHT22;2470;49.868;8.660;2023-04-24T00:11:52;13.60;99.90
4910;DHT22;2470;49.868;8.660;2023-04-24T00:14:17;13.60;99.90
4910;DHT22;2470;49.868;8.660;2023-04-24T00:16:43;13.60;99.90
4910;DHT22;2470;49.868;8.660;2023-04-24T00:19:08;13.60;99.90
4910;DHT22;2470;49.868;8.660;2023-04-24T00:21:35;13.70;99.90
4910;DHT22;2470;49.868;8.660;2023-04-24T00:24:00;13.60;99.90
4910;DHT22;2470;49.868;8.660;2023-04-24T00:26:26;13.70;99.90
4910;DHT22;2470;49.868;8.660;2023-04-24T00:28:51;13.60;99.90
4910;DHT22;2470;49.868;8.660;2023-04-24T00:31:16;13.70;99.90
4910;DHT22;2470;49.868;8.660;2023-04-24T00:33:42;13.70;99.90
4910;DHT22;2470;49.868;8.660;2023-04-24T00:36:08;13.70;99.90
4910;DHT22;2470;49.868;8.660;2023-04-24T00:38:33;13.60;99.90
4910;DHT22;2470;49.868;8.660;2023-04-24T00:40:58;13.60;99.90
4910;DHT22;2470;49.868;8.660;2023-04-24T00:43:25;13.60;99.90
4910;DHT22;2470;49.868;8.660;2023-04-24T00:45:50;13.50;99.90
4910;DHT22;2470;49.868;8.660;2023-04-24T00:48:16;13.50;99.90
4910;DHT22;2470;49.868;8.660;2023-04-24T00:50:42;13.50;99.90
4910;DHT22;2470;49.868;8.660;2023-04-24T00:53:07;13.40;99.90
4910;DHT22;2470;49.868;8.660;2023-04-24T00:55:33;13.40;99.90
4910;DHT22;2470;49.868;8.660;2023-04-24T00:57:59;13.40;99.90
4910;DHT22;2470;49.868;8.660;2023-04-24T01:00:25;13.40;99.90
4910;DHT22;2470;49.868;8.660;2023-04-24T01:02:51;13.40;99.90
4910;DHT22;2470;49.868;8.660;2023-04-24T01:05:17;13.40;99.90
4910;DHT22;2470;49.868;8.660;2023-04-24T01:07:45;13.40;99.90
4910;DHT22;2470;49.868;8.660;2023-04-24T01:10:14;13.40;99.90
4910;DHT22;2470;49.868;8.660;2023-04-24T01:12:40;13.40;99.90
4910;DHT22;2470;49.868;8.660;2023-04-24T01:15:06;13.50;99.90
4910;DHT22;2470;49.868;8.660;2023-04-24T01:17:32;13.50;99.90
4910;DHT22;2470;49.868;8.660;2023-04-24T01:19:59;13.40;99.90
4910;DHT22;2470;49.868;8.660;2023-04-24T01:22:25;13.40;99.90
4910;DHT22;2470;49.868;8.660;2023-04-24T01:24:52;13.40;99.90
4910;DHT22;2470;49.868;8.660;2023-04-24T01:27:19;13.40;99.90
4910;DHT22;2470;49.868;8.660;2023-04-24T01:29:45;13.40;99.90
4910;DHT22;2470;49.868;8.660;2023-04-24T01:32:12;13.30;99.90
4910;DHT22;2470;49.868;8.660;2023-04-24T01:34:38;13.30;99.90
4910;DHT22;2470;49.868;8.660;2023-04-24T01:37:04;13.30;99.90
4910;DHT22;2470;49.868;8.660;2023-04-24T01:39:32;13.30;99.90
4910;DHT22;2470;49.868;8.660;2023-04-24T01:41:58;13.30;99.90
4910;DHT22;2470;49.868;8.660;2023-04-24T01:44:24;13.30;99.90
4910;DHT22;2470;49.868;8.660;2023-04-24T01:46:49;13.40;99.90
4910;DHT22;2470;49.868;8.660;2023-04-24T01:49:15;13.30;99.90
4910;DHT22;2470;49.868;8.660;2023-04-24T01:51:41;13.30;99.90
4910;DHT22;2470;49.868;8.660;2023-04-24T01:54:06;13.30;99.90
4910;DHT22;2470;49.868;8.660;2023-04-24T01:56:34;13.20;99.90
4910;DHT22;2470;49.868;8.660;2023-04-24T01:59:03;13.20;99.90
4910;DHT22;2470;49.868;8.660;2023-04-24T02:01:34;13.20;99.90
4910;DHT22;2470;49.868;8.660;2023-04-24T02:04:01;13.20;99.90
4910;DHT22;2470;49.868;8.660;2023-04-24T02:06:26;13.10;99.90
4910;DHT22;2470;49.868;8.660;2023-04-24T02:08:52;13.10;99.90
4910;DHT22;2470;49.868;8.660;2023-04-24T02:11:17;13.10;99.90
4910;DHT22;2470;49.868;8.660;2023-04-24T02:13:43;13.10;99.90
4910;DHT22;2470;49.868;8.660;2023-04-24T02:16:09;13.10;99.90
4910;DHT22;2470;49.868;8.660;2023-04-24T02:18:35;13.20;99.90
4910;DHT22;2470;49.868;8.660;2023-04-24T02:21:00;13.20;99.90
4910;DHT22;2470;49.868;8.660;2023-04-24T02:23:26;13.10;99.90
4910;DHT22;2470;49.868;8.660;2023-04-24T02:25:52;13.20;99.90
4910;DHT22;2470;49.868;8.660;2023-04-24T02:28:18;13.10;99.90
4910;DHT22;2470;49.868;8.660;2023-04-24T02:30:44;13.20;99.90
4910;DHT22;2470;49.868;8.660;2023-04-24T02:33:11;13.10;99.90
4910;DHT22;2470;49.868;8.660;2023-04-24T02:35:36;13.20;99.90
4910;DHT22;2470;49.868;8.660;2023-04-24T02:38:02;13.20;99.90
4910;DHT22;2470;49.868;8.660;2023-04-24T02:40:28;13.20;99.90
4910;DHT22;2470;49.868;8.660;2023-04-24T02:42:54;13.10;99.90
4910;DHT22;2470;49.868;8.660;2023-04-24T02:45:19;13.10;99.90
4910;DHT22;2470;49.868;8.660;2023-04-24T02:47:45;13.10;99.90
4910;DHT22;2470;49.868;8.660;2023-04-24T02:50:10;13.10;99.90
4910;DHT22;2470;49.868;8.660;2023-04-24T02:52:36;13.00;99.90
4910;DHT22;2470;49.868;8.660;2023-04-24T02:55:02;12.90;99.90
4910;DHT22;2470;49.868;8.660;2023-04-24T02:57:28;12.90;99.90
4910;DHT22;2470;49.868;8.660;2023-04-24T02:59:53;12.90;99.90
4910;DHT22;2470;49.868;8.660;2023-04-24T03:02:19;12.90;99.90
4910;DHT22;2470;49.868;8.660;2023-04-24T03:04:46;12.90;99.90
4910;DHT22;2470;49.868;8.660;2023-04-24T03:07:13;12.80;99.90
4910;DHT22;2470;49.868;8.660;2023-04-24T03:09:40;12.80;99.90
4910;DHT22;2470;49.868;8.660;2023-04-24T03:12:05;12.70;99.90
4910;DHT22;2470;49.868;8.660;2023-04-24T03:14:31;12.70;99.90
4910;DHT22;2470;49.868;8.660;2023-04-24T03:16:56;12.60;99.90
4910;DHT22;2470;49.868;8.660;2023-04-24T03:19:22;12.60;99.90
4910;DHT22;2470;49.868;8.660;2023-04-24T03:21:48;12.70;99.90
4910;DHT22;2470;49.868;8.660;2023-04-24T03:24:13;12.70;99.90
4910;DHT22;2470;49.868;8.660;2023-04-24T03:26:39;12.60;99.90
4910;DHT22;2470;49.868;8.660;2023-04-24T03:29:04;12.60;99.90
4910;DHT22;2470;49.868;8.660;2023-04-24T03:31:30;12.50;99.90
4910;DHT22;2470;49.868;8.660;2023-04-24T03:33:55;12.60;99.90
4910;DHT22;2470;49.868;8.660;2023-04-24T03:36:21;12.50;99.90
4910;DHT22;2470;49.868;8.660;2023-04-24T03:38:46;12.50;99.90
4910;DHT22;2470;49.868;8.660;2023-04-24T03:41:12;12.50;99.90
4910;DHT22;2470;49.868;8.660;2023-04-24T03:43:37;12.40;99.90
4910;DHT22;2470;49.868;8.660;2023-04-24T03:46:03;12.30;99.90
4910;DHT22;2470;49.868;8.660;2023-04-24T03:48:29;12.30;99.90
4910;DHT22;2470;49.868;8.660;2023-04-24T03:50:55;12.30;99.90
4910;DHT22;2470;49.868;8.660;2023-04-24T03:53:20;12.20;99.90
4910;DHT22;2470;49.868;8.660;2023-04-24T03:55:46;12.20;99.90
4910;DHT22;2470;49.868;8.660;2023-04-24T03:58:12;12.20;99.90
4910;DHT22;2470;49.868;8.660;2023-04-24T04:00:39;12.20;99.90
4910;DHT22;2470;49.868;8.660;2023-04-24T04:03:05;12.20;99.90
4910;DHT22;2470;49.868;8.660;2023-04-24T04:05:31;12.20;99.90
4910;DHT22;2470;49.868;8.660;2023-04-24T04:07:56;12.10;99.90
4910;DHT22;2470;49.868;8.660;2023-04-24T04:10:22;12.10;99.90
4910;DHT22;2470;49.868;8.660;2023-04-24T04:12:48;12.10;99.90
4910;DHT22;2470;49.868;8.660;2023-04-24T04:15:13;12.00;99.90
4910;DHT22;2470;49.868;8.660;2023-04-24T04:17:39;12.00;99.90
4910;DHT22;2470;49.868;8.660;2023-04-24T04:20:05;12.00;99.90
4910;DHT22;2470;49.868;8.660;2023-04-24T04:22:36;11.90;99.90
4910;DHT22;2470;49.868;8.660;2023-04-24T04:25:02;11.90;99.90
4910;DHT22;2470;49.868;8.660;2023-04-24T04:27:28;11.80;99.90
4910;DHT22;2470;49.868;8.660;2023-04-24T04:29:54;11.80;99.90
4910;DHT22;2470;49.868;8.660;2023-04-24T04:32:21;11.80;99.90
4910;DHT22;2470;49.868;8.660;2023-04-24T04:34:47;11.70;99.90
4910;DHT22;2470;49.868;8.660;2023-04-24T04:37:14;11.60;99.90
4910;DHT22;2470;49.868;8.660;2023-04-24T04:39:40;11.50;99.90
4910;DHT22;2470;49.868;8.660;2023-04-24T04:42:06;11.50;99.90
4910;DHT22;2470;49.868;8.660;2023-04-24T04:44:32;11.50;99.90
4910;DHT22;2470;49.868;8.660;2023-04-24T04:46:58;11.50;99.90
4910;DHT22;2470;49.868;8.660;2023-04-24T04:49:24;11.40;99.90
4910;DHT22;2470;49.868;8.660;2023-04-24T04:51:50;11.50;99.90
4910;DHT22;2470;49.868;8.660;2023-04-24T04:54:16;11.50;99.90
4910;DHT22;2470;49.868;8.660;2023-04-24T04:56:41;11.50;99.90
4910;DHT22;2470;49.868;8.660;2023-04-24T04:59:07;11.50;99.90
4910;DHT22;2470;49.868;8.660;2023-04-24T05:01:32;11.50;99.90
4910;DHT22;2470;49.868;8.660;2023-04-24T05:03:58;11.50;99.90
4910;DHT22;2470;49.868;8.660;2023-04-24T05:06:24;11.60;99.90
4910;DHT22;2470;49.868;8.660;2023-04-24T05:08:49;11.70;99.90
4910;DHT22;2470;49.868;8.660;2023-04-24T05:11:15;11.70;99.90
4910;DHT22;2470;49.868;8.660;2023-04-24T05:13:40;11.70;99.90
4910;DHT22;2470;49.868;8.660;2023-04-24T05:16:06;11.70;99.90
4910;DHT22;2470;49.868;8.660;2023-04-24T05:18:32;11.70;99.90
4910;DHT22;2470;49.868;8.660;2023-04-24T05:20:57;11.80;99.90
4910;DHT22;2470;49.868;8.660;2023-04-24T05:23:23;11.80;99.90
4910;DHT22;2470;49.868;8.660;2023-04-24T05:25:48;12.00;99.90
4910;DHT22;2470;49.868;8.660;2023-04-24T05:28:17;12.10;99.90
4910;DHT22;2470;49.868;8.660;2023-04-24T05:30:42;12.10;99.90
4910;DHT22;2470;49.868;8.660;2023-04-24T05:33:08;12.10;99.90
4910;DHT22;2470;49.868;8.660;2023-04-24T05:35:34;12.10;99.90
4910;DHT22;2470;49.868;8.660;2023-04-24T05:38:00;12.10;99.90
4910;DHT22;2470;49.868;8.660;2023-04-24T05:40:25;12.10;99.90
4910;DHT22;2470;49.868;8.660;2023-04-24T05:42:51;12.10;99.90
4910;DHT22;2470;49.868;8.660;2023-04-24T05:45:16;12.20;99.90
4910;DHT22;2470;49.868;8.660;2023-04-24T05:47:43;12.20;99.90
4910;DHT22;2470;49.868;8.660;2023-04-24T05:50:11;12.30;99.90
4910;DHT22;2470;49.868;8.660;2023-04-24T05:52:37;12.40;99.90
4910;DHT22;2470;49.868;8.660;2023-04-24T05:55:06;12.40;99.90
4910;DHT22;2470;49.868;8.660;2023-04-24T05:57:31;12.30;99.90
4910;DHT22;2470;49.868;8.660;2023-04-24T05:59:57;12.30;99.90
4910;DHT22;2470;49.868;8.660;2023-04-24T06:02:22;12.30;99.90
4910;DHT22;2470;49.868;8.660;2023-04-24T06:04:48;12.40;99.90
4910;DHT22;2470;49.868;8.660;2023-04-24T06:07:13;12.40;99.90
4910;DHT22;2470;49.868;8.660;2023-04-24T06:09:39;12.40;99.90
4910;DHT22;2470;49.868;8.660;2023-04-24T06:12:04;12.50;99.90
4910;DHT22;2470;49.868;8.660;2023-04-24T06:14:32;12.50;99.90
4910;DHT22;2470;49.868;8.660;2023-04-24T06:16:58;12.40;99.90
4910;DHT22;2470;49.868;8.660;2023-04-24T06:19:23;12.30;99.90
4910;DHT22;2470;49.868;8.660;2023-04-24T06:21:49;12.30;99.90
4910;DHT22;2470;49.868;8.660;2023-04-24T06:24:15;12.20;99.90
4910;DHT22;2470;49.868;8.660;2023-04-24T06:26:42;12.20;99.90
4910;DHT22;2470;49.868;8.660;2023-04-24T06:29:07;12.10;99.90
4910;DHT22;2470;49.868;8.660;2023-04-24T06:31:33;12.10;99.90
4910;DHT22;2470;49.868;8.660;2023-04-24T06:34:03;12.10;99.90
4910;DHT22;2470;49.868;8.660;2023-04-24T06:36:29;12.30;99.90
4910;DHT22;2470;49.868;8.660;2023-04-24T06:38:55;12.40;99.90
4910;DHT22;2470;49.868;8.660;2023-04-24T06:41:22;12.40;99.90
4910;DHT22;2470;49.868;8.660;2023-04-24T06:43:48;12.50;99.90
4910;DHT22;2470;49.868;8.660;2023-04-24T06:46:13;12.50;99.90
4910;DHT22;2470;49.868;8.660;2023-04-24T06:48:39;12.50;99.90
4910;DHT22;2470;49.868;8.660;2023-04-24T06:51:04;12.50;99.90
4910;DHT22;2470;49.868;8.660;2023-04-24T06:53:30;12.50;99.90
4910;DHT22;2470;49.868;8.660;2023-04-24T06:55:56;12.70;99.90
4910;DHT22;2470;49.868;8.660;2023-04-24T06:58:21;12.70;99.90
4910;DHT22;2470;49.868;8.660;2023-04-24T07:00:47;12.80;99.90
4910;DHT22;2470;49.868;8.660;2023-04-24T07:03:12;12.70;99.90
4910;DHT22;2470;49.868;8.660;2023-04-24T07:05:37;12.50;99.90
4910;DHT22;2470;49.868;8.660;2023-04-24T07:08:11;12.40;99.90
4910;DHT22;2470;49.868;8.660;2023-04-24T07:10:38;12.30;99.90
4910;DHT22;2470;49.868;8.660;2023-04-24T07:13:03;12.30;99.90
4910;DHT22;2470;49.868;8.660;2023-04-24T07:15:29;12.40;99.90
4910;DHT22;2470;49.868;8.660;2023-04-24T07:17:55;12.50;99.90
4910;DHT22;2470;49.868;8.660;2023-04-24T07:20:21;12.50;99.90
4910;DHT22;2470;49.868;8.660;2023-04-24T07:22:46;12.50;99.90
4910;DHT22;2470;49.868;8.660;2023-04-24T07:25:13;12.60;99.90
4910;DHT22;2470;49.868;8.660;2023-04-24T07:27:39;12.70;99.90
4910;DHT22;2470;49.868;8.660;2023-04-24T07:30:05;12.60;99.90
4910;DHT22;2470;49.868;8.660;2023-04-24T07:32:32;12.50;99.90
4910;DHT22;2470;49.868;8.660;2023-04-24T07:34:57;12.50;99.90
4910;DHT22;2470;49.868;8.660;2023-04-24T07:37:23;12.50;99.90
4910;DHT22;2470;49.868;8.660;2023-04-24T07:39:49;12.50;99.90
4910;DHT22;2470;49.868;8.660;2023-04-24T07:42:15;12.50;99.90
4910;DHT22;2470;49.868;8.660;2023-04-24T07:44:40;12.50;99.90
4910;DHT22;2470;49.868;8.660;2023-04-24T07:47:06;12.50;99.90
4910;DHT22;2470;49.868;8.660;2023-04-24T07:49:31;12.60;99.90
4910;DHT22;2470;49.868;8.660;2023-04-24T07:51:59;12.70;99.90
4910;DHT22;2470;49.868;8.660;2023-04-24T07:54:26;12.80;99.90
4910;DHT22;2470;49.868;8.660;2023-04-24T07:56:51;13.00;99.90
4910;DHT22;2470;49.868;8.660;2023-04-24T07:59:17;13.30;99.90
4910;DHT22;2470;49.868;8.660;2023-04-24T08:01:42;13.30;99.90
4910;DHT22;2470;49.868;8.660;2023-04-24T08:04:07;13.30;99.90
4910;DHT22;2470;49.868;8.660;2023-04-24T08:06:33;13.20;99.90
4910;DHT22;2470;49.868;8.660;2023-04-24T08:08:59;13.10;99.90
4910;DHT22;2470;49.868;8.660;2023-04-24T08:11:25;13.10;99.90
4910;DHT22;2470;49.868;8.660;2023-04-24T08:13:51;13.10;99.90
4910;DHT22;2470;49.868;8.660;2023-04-24T08:16:17;13.30;99.90
4910;DHT22;2470;49.868;8.660;2023-04-24T08:18:42;13.60;99.90
4910;DHT22;2470;49.868;8.660;2023-04-24T08:21:08;13.60;99.90
4910;DHT22;2470;49.868;8.660;2023-04-24T08:23:33;13.60;99.80
4910;DHT22;2470;49.868;8.660;2023-04-24T08:25:59;13.40;99.90
4910;DHT22;2470;49.868;8.660;2023-04-24T08:28:24;13.20;99.90
4910;DHT22;2470;49.868;8.660;2023-04-24T08:30:50;13.10;99.90
4910;DHT22;2470;49.868;8.660;2023-04-24T08:33:21;13.10;99.90
4910;DHT22;2470;49.868;8.660;2023-04-24T08:35:47;13.00;99.90
4910;DHT22;2470;49.868;8.660;2023-04-24T08:38:12;13.00;99.90
4910;DHT22;2470;49.868;8.660;2023-04-24T08:40:38;13.10;99.90
4910;DHT22;2470;49.868;8.660;2023-04-24T08:43:04;13.20;99.90
4910;DHT22;2470;49.868;8.660;2023-04-24T08:45:30;13.30;99.90
4910;DHT22;2470;49.868;8.660;2023-04-24T08:47:58;13.60;99.90
4910;DHT22;2470;49.868;8.660;2023-04-24T08:50:25;13.80;99.90
4910;DHT22;2470;49.868;8.660;2023-04-24T08:52:51;13.90;99.90
4910;DHT22;2470;49.868;8.660;2023-04-24T08:55:19;13.90;99.90
4910;DHT22;2470;49.868;8.660;2023-04-24T08:57:52;13.90;99.90
4910;DHT22;2470;49.868;8.660;2023-04-24T09:00:20;13.60;99.90
4910;DHT22;2470;49.868;8.660;2023-04-24T09:02:47;13.50;99.90
4910;DHT22;2470;49.868;8.660;2023-04-24T09:05:14;13.50;99.90
4910;DHT22;2470;49.868;8.660;2023-04-24T09:07:44;13.50;99.90
4910;DHT22;2470;49.868;8.660;2023-04-24T09:10:10;13.40;99.60
4910;DHT22;2470;49.868;8.660;2023-04-24T09:12:36;13.30;99.80
4910;DHT22;2470;49.868;8.660;2023-04-24T09:15:02;13.10;99.90
4910;DHT22;2470;49.868;8.660;2023-04-24T09:17:30;12.90;99.90
4910;DHT22;2470;49.868;8.660;2023-04-24T09:19:56;12.80;99.90
4910;DHT22;2470;49.868;8.660;2023-04-24T09:22:21;12.90;99.90
4910;DHT22;2470;49.868;8.660;2023-04-24T09:24:47;13.00;99.90
4910;DHT22;2470;49.868;8.660;2023-04-24T09:27:13;13.10;99.90
4910;DHT22;2470;49.868;8.660;2023-04-24T09:29:53;13.10;99.90
4910;DHT22;2470;49.868;8.660;2023-04-24T09:32:21;13.10;99.90
4910;DHT22;2470;49.868;8.660;2023-04-24T09:34:47;13.00;99.90
4910;DHT22;2470;49.868;8.660;2023-04-24T09:37:29;13.00;99.90
4910;DHT22;2470;49.868;8.660;2023-04-24T09:40:18;13.00;99.90
4910;DHT22;2470;49.868;8.660;2023-04-24T09:42:55;13.00;99.90
4910;DHT22;2470;49.868;8.660;2023-04-24T09:45:37;13.00;99.90
4910;DHT22;2470;49.868;8.660;2023-04-24T09:48:03;12.90;99.90
4910;DHT22;2470;49.868;8.660;2023-04-24T09:50:30;12.90;99.90
4910;DHT22;2470;49.868;8.660;2023-04-24T09:52:59;13.00;99.90
4910;DHT22;2470;49.868;8.660;2023-04-24T09:55:26;13.00;99.90
4910;DHT22;2470;49.868;8.660;2023-04-24T09:57:56;13.00;99.90
4910;DHT22;2470;49.868;8.660;2023-04-24T10:00:27;12.90;99.90
4910;DHT22;2470;49.868;8.660;2023-04-24T10:03:05;12.90;99.90
4910;DHT22;2470;49.868;8.660;2023-04-24T10:05:35;13.00;99.90
4910;DHT22;2470;49.868;8.660;2023-04-24T10:08:04;13.10;99.90
4910;DHT22;2470;49.868;8.660;2023-04-24T10:10:35;13.30;99.90
4910;DHT22;2470;49.868;8.660;2023-04-24T10:13:02;13.40;99.90
4910;DHT22;2470;49.868;8.660;2023-04-24T10:15:29;13.30;99.90
4910;DHT22;2470;49.868;8.660;2023-04-24T10:17:58;13.30;99.90
4910;DHT22;2470;49.868;8.660;2023-04-24T10:20:26;13.20;99.90
4910;DHT22;2470;49.868;8.660;2023-04-24T10:22:54;13.10;99.90
4910;DHT22;2470;49.868;8.660;2023-04-24T10:25:21;13.00;99.90
4910;DHT22;2470;49.868;8.660;2023-04-24T10:27:48;12.90;99.90
4910;DHT22;2470;49.868;8.660;2023-04-24T10:30:14;12.80;99.90
4910;DHT22;2470;49.868;8.660;2023-04-24T10:32:40;12.90;99.90
4910;DHT22;2470;49.868;8.660;2023-04-24T10:35:07;12.90;99.90
4910;DHT22;2470;49.868;8.660;2023-04-24T10:37:40;12.90;99.90
4910;DHT22;2470;49.868;8.660;2023-04-24T10:40:07;12.90;99.90
4910;DHT22;2470;49.868;8.660;2023-04-24T10:42:34;12.90;99.90
4910;DHT22;2470;49.868;8.660;2023-04-24T10:44:59;13.10;99.90
4910;DHT22;2470;49.868;8.660;2023-04-24T10:47:30;13.30;99.90
4910;DHT22;2470;49.868;8.660;2023-04-24T10:50:10;13.40;99.90
4910;DHT22;2470;49.868;8.660;2023-04-24T10:52:49;13.70;99.90
4910;DHT22;2470;49.868;8.660;2023-04-24T10:55:42;13.90;99.90
4910;DHT22;2470;49.868;8.660;2023-04-24T10:58:08;14.20;99.90
4910;DHT22;2470;49.868;8.660;2023-04-24T11:00:37;14.30;99.90
4910;DHT22;2470;49.868;8.660;2023-04-24T11:03:05;14.40;99.90
4910;DHT22;2470;49.868;8.660;2023-04-24T11:05:56;14.30;99.90
4910;DHT22;2470;49.868;8.660;2023-04-24T11:08:26;14.00;99.90
4910;DHT22;2470;49.868;8.660;2023-04-24T11:11:21;13.70;99.90
4910;DHT22;2470;49.868;8.660;2023-04-24T11:16:27;13.40;99.90
4910;DHT22;2470;49.868;8.660;2023-04-24T11:22:17;13.10;99.90
4910;DHT22;2470;49.868;8.660;2023-04-24T11:24:49;13.00;99.90
4910;DHT22;2470;49.868;8.660;2023-04-24T11:27:17;12.90;99.90
4910;DHT22;2470;49.868;8.660;2023-04-24T11:35:14;12.10;99.90
4910;DHT22;2470;49.868;8.660;2023-04-24T11:37:45;11.90;99.90
4910;DHT22;2470;49.868;8.660;2023-04-24T11:40:13;11.90;99.90
4910;DHT22;2470;49.868;8.660;2023-04-24T11:42:44;11.90;99.90
4910;DHT22;2470;49.868;8.660;2023-04-24T11:47:46;11.80;99.90
4910;DHT22;2470;49.868;8.660;2023-04-24T11:50:14;11.80;99.90
4910;DHT22;2470;49.868;8.660;2023-04-24T11:52:40;11.80;99.90
4910;DHT22;2470;49.868;8.660;2023-04-24T11:55:09;11.80;99.90
4910;DHT22;2470;49.868;8.660;2023-04-24T11:57:37;11.80;99.90
4910;DHT22;2470;49.868;8.660;2023-04-24T12:00:04;11.80;99.90
4910;DHT22;2470;49.868;8.660;2023-04-24T12:02:30;11.80;99.90
4910;DHT22;2470;49.868;8.660;2023-04-24T12:04:56;11.80;99.90
4910;DHT22;2470;49.868;8.660;2023-04-24T12:07:23;11.70;99.90
4910;DHT22;2470;49.868;8.660;2023-04-24T12:09:56;11.60;99.90
4910;DHT22;2470;49.868;8.660;2023-04-24T12:12:25;11.70;99.90
4910;DHT22;2470;49.868;8.660;2023-04-24T12:14:55;11.80;99.90
4910;DHT22;2470;49.868;8.660;2023-04-24T12:17:31;11.80;99.90
4910;DHT22;2470;49.868;8.660;2023-04-24T12:20:03;11.90;99.90
4910;DHT22;2470;49.868;8.660;2023-04-24T12:22:50;12.10;99.90
4910;DHT22;2470;49.868;8.660;2023-04-24T12:25:17;12.50;99.90
4910;DHT22;2470;49.868;8.660;2023-04-24T12:27:46;12.80;99.90
4910;DHT22;2470;49.868;8.660;2023-04-24T12:30:16;13.40;99.90
4910;DHT22;2470;49.868;8.660;2023-04-24T12:32:49;14.20;99.90
4910;DHT22;2470;49.868;8.660;2023-04-24T12:35:22;14.80;99.90
4910;DHT22;2470;49.868;8.660;2023-04-24T12:37:48;16.00;99.90
4910;DHT22;2470;49.868;8.660;2023-04-24T12:40:14;17.40;99.90
4910;DHT22;2470;49.868;8.660;2023-04-24T12:42:49;18.40;99.90
4910;DHT22;2470;49.868;8.660;2023-04-24T12:45:16;19.80;99.90
4910;DHT22;2470;49.868;8.660;2023-04-24T12:47:43;20.60;96.70
4910;DHT22;2470;49.868;8.660;2023-04-24T12:50:11;21.30;94.30
4910;DHT22;2470;49.868;8.660;2023-04-24T12:52:37;22.30;90.70
4910;DHT22;2470;49.868;8.660;2023-04-24T12:55:03;23.30;88.70
4910;DHT22;2470;49.868;8.660;2023-04-24T12:57:30;24.40;81.40
4910;DHT22;2470;49.868;8.660;2023-04-24T12:59:57;25.30;76.10
4910;DHT22;2470;49.868;8.660;2023-04-24T13:02:32;25.70;72.00
4910;DHT22;2470;49.868;8.660;2023-04-24T13:04:59;26.30;69.40
4910;DHT22;2470;49.868;8.660;2023-04-24T13:07:25;26.00;66.60
4910;DHT22;2470;49.868;8.660;2023-04-24T13:09:51;24.70;66.10
4910;DHT22;2470;49.868;8.660;2023-04-24T13:12:17;22.70;69.20
4910;DHT22;2470;49.868;8.660;2023-04-24T13:14:43;20.80;72.50
4910;DHT22;2470;49.868;8.660;2023-04-24T13:17:08;19.40;74.80
4910;DHT22;2470;49.868;8.660;2023-04-24T13:19:39;18.20;75.50
4910;DHT22;2470;49.868;8.660;2023-04-24T13:22:05;17.60;78.40
4910;DHT22;2470;49.868;8.660;2023-04-24T13:24:31;17.70;78.60
4910;DHT22;2470;49.868;8.660;2023-04-24T13:26:57;17.20;78.20
4910;DHT22;2470;49.868;8.660;2023-04-24T13:29:23;16.60;80.90
4910;DHT22;2470;49.868;8.660;2023-04-24T13:31:52;16.10;81.60
4910;DHT22;2470;49.868;8.660;2023-04-24T13:34:20;15.70;83.40
4910;DHT22;2470;49.868;8.660;2023-04-24T13:36:46;15.60;82.90
4910;DHT22;2470;49.868;8.660;2023-04-24T13:39:12;15.60;84.90
4910;DHT22;2470;49.868;8.660;2023-04-24T13:41:38;15.60;85.80
4910;DHT22;2470;49.868;8.660;2023-04-24T13:44:04;15.50;85.00
4910;DHT22;2470;49.868;8.660;2023-04-24T13:46:30;15.20;86.10
4910;DHT22;2470;49.868;8.660;2023-04-24T13:48:55;15.10;88.40
4910;DHT22;2470;49.868;8.660;2023-04-24T13:51:22;14.90;89.60
4910;DHT22;2470;49.868;8.660;2023-04-24T13:53:48;14.70;90.20
4910;DHT22;2470;49.868;8.660;2023-04-24T13:56:13;14.70;90.70
4910;DHT22;2470;49.868;8.660;2023-04-24T13:58:39;14.60;90.90
4910;DHT22;2470;49.868;8.660;2023-04-24T14:01:05;14.60;90.50
4910;DHT22;2470;49.868;8.660;2023-04-24T14:03:32;14.50;90.90
4910;DHT22;2470;49.868;8.660;2023-04-24T14:05:58;14.40;91.30
4910;DHT22;2470;49.868;8.660;2023-04-24T14:08:24;14.40;91.10
4910;DHT22;2470;49.868;8.660;2023-04-24T14:10:50;14.30;90.90
4910;DHT22;2470;49.868;8.660;2023-04-24T14:13:16;14.40;91.20
4910;DHT22;2470;49.868;8.660;2023-04-24T14:15:41;14.40;91.00
4910;DHT22;2470;49.868;8.660;2023-04-24T14:18:07;14.40;91.30
4910;DHT22;2470;49.868;8.660;2023-04-24T14:20:33;14.40;91.20
4910;DHT22;2470;49.868;8.660;2023-04-24T14:22:58;14.40;90.50
4910;DHT22;2470;49.868;8.660;2023-04-24T14:25:24;14.40;90.40
4910;DHT22;2470;49.868;8.660;2023-04-24T14:27:50;14.40;89.20
4910;DHT22;2470;49.868;8.660;2023-04-24T14:30:16;14.30;88.70
4910;DHT22;2470;49.868;8.660;2023-04-24T14:32:41;14.20;90.10
4910;DHT22;2470;49.868;8.660;2023-04-24T14:35:07;14.10;90.70
4910;DHT22;2470;49.868;8.660;2023-04-24T14:37:33;14.10;91.50
4910;DHT22;2470;49.868;8.660;2023-04-24T14:39:58;14.20;91.70
4910;DHT22;2470;49.868;8.660;2023-04-24T14:42:24;14.30;91.80
4910;DHT22;2470;49.868;8.660;2023-04-24T14:44:49;14.20;91.50
4910;DHT22;2470;49.868;8.660;2023-04-24T14:47:15;14.20;90.70
4910;DHT22;2470;49.868;8.660;2023-04-24T14:49:43;14.20;90.20
4910;DHT22;2470;49.868;8.660;2023-04-24T14:52:09;14.30;90.30
4910;DHT22;2470;49.868;8.660;2023-04-24T14:54:35;14.30;90.80
4910;DHT22;2470;49.868;8.660;2023-04-24T14:57:00;14.40;90.50
4910;DHT22;2470;49.868;8.660;2023-04-24T14:59:27;14.30;90.50
4910;DHT22;2470;49.868;8.660;2023-04-24T15:01:53;14.20;89.60
4910;DHT22;2470;49.868;8.660;2023-04-24T15:04:26;14.10;90.10
4910;DHT22;2470;49.868;8.660;2023-04-24T15:06:52;14.00;90.40
4910;DHT22;2470;49.868;8.660;2023-04-24T15:09:22;14.00;91.10
4910;DHT22;2470;49.868;8.660;2023-04-24T15:11:49;13.90;91.60
4910;DHT22;2470;49.868;8.660;2023-04-24T15:14:16;13.90;91.90
4910;DHT22;2470;49.868;8.660;2023-04-24T15:16:41;13.90;92.00
4910;DHT22;2470;49.868;8.660;2023-04-24T15:19:08;13.90;92.00
4910;DHT22;2470;49.868;8.660;2023-04-24T15:21:34;13.90;91.90
4910;DHT22;2470;49.868;8.660;2023-04-24T15:24:00;13.90;91.80
4910;DHT22;2470;49.868;8.660;2023-04-24T15:26:26;13.90;91.30
4910;DHT22;2470;49.868;8.660;2023-04-24T15:28:52;13.90;90.90
4910;DHT22;2470;49.868;8.660;2023-04-24T15:31:18;13.90;91.30
4910;DHT22;2470;49.868;8.660;2023-04-24T15:33:44;14.40;91.60
4910;DHT22;2470;49.868;8.660;2023-04-24T15:36:10;14.80;90.80
4910;DHT22;2470;49.868;8.660;2023-04-24T15:38:37;15.00;90.70
4910;DHT22;2470;49.868;8.660;2023-04-24T15:41:02;14.90;90.70
4910;DHT22;2470;49.868;8.660;2023-04-24T15:43:28;14.90;90.90
4910;DHT22;2470;49.868;8.660;2023-04-24T15:45:59;14.90;89.70
4910;DHT22;2470;49.868;8.660;2023-04-24T15:48:25;14.80;89.40
4910;DHT22;2470;49.868;8.660;2023-04-24T15:50:50;14.70;89.00
4910;DHT22;2470;49.868;8.660;2023-04-24T15:53:16;14.70;89.10
4910;DHT22;2470;49.868;8.660;2023-04-24T15:55:47;14.70;89.00
4910;DHT22;2470;49.868;8.660;2023-04-24T15:58:13;14.60;89.20
4910;DHT22;2470;49.868;8.660;2023-04-24T16:00:39;14.90;89.80
4910;DHT22;2470;49.868;8.660;2023-04-24T16:03:05;15.30;89.10
4910;DHT22;2470;49.868;8.660;2023-04-24T16:05:30;15.40;88.20
4910;DHT22;2470;49.868;8.660;2023-04-24T16:07:56;15.30;88.20
4910;DHT22;2470;49.868;8.660;2023-04-24T16:10:21;15.30;89.10
4910;DHT22;2470;49.868;8.660;2023-04-24T16:12:47;15.30;89.10
4910;DHT22;2470;49.868;8.660;2023-04-24T16:15:13;15.20;89.40